Time;durP1;ratioP1;P1;durP2;ratioP2;P2;SDS_P1;SDS_P2;PMS_P1;PMS_P2;Temp;Humidity;BMP_temperature;BMP_pressure;BME280_temperature;BME280_humidity;BME280_pressure;Samples;Min_cycle;Max_cycle;Signal;HPM_P1;HPM_P2
2023/04/07 00:00:22;;;;;;;;;4.00;1.00;;;;;13.10;52.81;101274.47;5090784;27;45476;-72
2023/04/07 00:02:47;;;;;;;;;2.67;0.33;;;;;13.13;53.46;101290.22;5083423;27;46212;-69
2023/04/07 00:05:13;;;;;;;;;4.33;1.00;;;;;13.14;53.58;101292.00;5083423;27;45878;-69
2023/04/07 00:07:40;;;;;;;;;2.00;0.00;;;;;13.08;53.60;101292.00;5078983;27;45538;-67
2023/04/07 00:10:07;;;;;;;;;1.33;1.00;;;;;13.05;53.60;101286.72;5091322;27;45964;-67
2023/04/07 00:12:32;;;;;;;;;1.00;1.00;;;;;13.11;53.24;101296.38;5092209;27;45571;-67
2023/04/07 00:14:58;;;;;;;;;0.00;0.00;;;;;12.99;53.47;101278.81;5098247;27;45402;-70
2023/04/07 00:17:24;;;;;;;;;1.67;1.67;;;;;12.87;53.96;101269.19;5097247;27;45528;-69
2023/04/07 00:19:49;;;;;;;;;2.00;1.33;;;;;13.01;53.83;101292.00;5097551;27;45469;-68
2023/04/07 00:22:15;;;;;;;;;4.00;1.00;;;;;13.01;53.92;101295.50;5097337;27;45851;-67
2023/04/07 00:24:41;;;;;;;;;5.33;1.00;;;;;13.01;54.16;101300.75;5079188;27;45311;-67
2023/04/07 00:27:06;;;;;;;;;4.67;1.00;;;;;12.99;54.22;101305.13;5083136;27;46639;-68
2023/04/07 00:29:32;;;;;;;;;4.33;1.00;;;;;12.95;53.89;101290.22;5099962;27;45427;-68
2023/04/07 00:31:57;;;;;;;;;1.00;1.00;;;;;12.88;54.31;101277.94;5096106;27;45759;-69
2023/04/07 00:34:23;;;;;;;;;1.33;1.33;;;;;12.93;54.17;101294.59;5097699;27;45489;-68
2023/04/07 00:36:51;;;;;;;;;3.00;1.00;;;;;12.91;54.56;101285.84;5078724;27;47108;-69
2023/04/07 00:39:17;;;;;;;;;3.00;1.00;;;;;12.89;54.44;101283.19;5097008;27;45460;-68
2023/04/07 00:41:44;;;;;;;;;1.67;1.33;;;;;12.85;54.91;101275.31;5096928;27;45529;-69
2023/04/07 00:44:10;;;;;;;;;3.00;1.00;;;;;12.72;54.76;101263.91;5097396;27;45355;-69
2023/04/07 00:46:35;;;;;;;;;1.00;1.00;;;;;12.78;54.98;101265.66;5078203;27;47615;-67
2023/04/07 00:49:01;;;;;;;;;1.67;1.67;;;;;12.76;54.55;101260.41;5096614;27;45440;-67
2023/04/07 00:51:27;;;;;;;;;1.00;1.00;;;;;12.79;54.77;101265.69;5096760;27;45480;-69
2023/04/07 00:53:53;;;;;;;;;1.00;1.00;;;;;12.80;54.81;101271.81;5096803;27;45659;-68
2023/04/07 00:56:19;;;;;;;;;4.00;2.00;;;;;12.73;55.17;101255.13;5085190;27;45503;-69
2023/04/07 00:58:44;;;;;;;;;1.75;1.00;;;;;12.80;54.97;101277.06;5098169;27;45357;-67
2023/04/07 01:01:18;;;;;;;;;1.50;1.50;;;;;12.75;54.77;101273.56;5072857;28;45363;-67
2023/04/07 01:03:52;;;;;;;;;3.00;2.00;;;;;12.79;54.82;101281.44;5077035;27;45505;-68
2023/04/07 01:06:23;;;;;;;;;3.67;1.33;;;;;12.71;55.11;101265.63;5078218;27;46628;-69
2023/04/07 01:09:22;;;;;;;;;2.00;2.00;;;;;12.79;55.12;101273.56;5074260;28;45709;-69
2023/04/07 01:12:15;;;;;;;;;4.00;1.00;;;;;12.79;55.01;101263.03;5048222;28;45536;-70
2023/04/07 01:14:46;;;;;;;;;3.00;1.67;;;;;12.78;55.42;101269.16;5084608;27;45500;-71
2023/04/07 01:17:14;;;;;;;;;3.00;2.00;;;;;12.75;55.01;101261.28;5096050;27;46525;-70
2023/04/07 01:19:46;;;;;;;;;2.25;1.00;;;;;12.79;55.20;101270.03;5098939;27;45410;-69
2023/04/07 01:22:16;;;;;;;;;1.00;1.00;;;;;12.82;55.30;101270.06;5077684;27;45553;-69
2023/04/07 01:25:10;;;;;;;;;1.50;1.50;;;;;12.80;55.42;101267.41;5081576;27;45301;-71
2023/04/07 01:27:59;;;;;;;;;4.00;2.00;;;;;12.79;55.66;101265.69;5086006;27;45973;-69
2023/04/07 01:30:29;;;;;;;;;2.00;2.00;;;;;12.82;55.47;101270.94;5096131;27;45386;-67
2023/04/07 01:32:58;;;;;;;;;1.00;1.00;;;;;12.73;55.02;101250.75;5096287;27;45434;-72
2023/04/07 01:35:28;;;;;;;;;2.00;2.00;;;;;12.78;55.18;101268.28;5095889;27;45401;-70
2023/04/07 01:37:56;;;;;;;;;2.00;0.00;;;;;12.79;55.20;101270.03;5083410;27;46268;-72
2023/04/07 01:40:24;;;;;;;;;2.00;2.00;;;;;12.75;55.42;101273.56;5097871;27;45370;-73
2023/04/07 01:42:51;;;;;;;;;1.50;1.50;;;;;12.67;55.60;101253.38;5100439;27;45446;-73
2023/04/07 01:45:17;;;;;;;;;2.33;1.67;;;;;12.71;55.64;101265.63;5082346;27;45525;-70
2023/04/07 01:47:44;;;;;;;;;1.50;1.00;;;;;12.77;55.62;101277.06;5100110;27;45540;-69
2023/04/07 01:50:11;;;;;;;;;1.00;1.00;;;;;12.77;55.68;101274.44;5098932;27;45336;-71
2023/04/07 01:52:38;;;;;;;;;2.75;1.00;;;;;12.75;55.39;101269.16;5080882;27;45558;-70
2023/04/07 01:55:05;;;;;;;;;7.25;2.00;;;;;12.81;55.68;101281.44;5096167;27;45413;-68
2023/04/07 01:57:31;;;;;;;;;3.00;2.00;;;;;12.72;56.03;101258.66;5095916;27;45650;-70
2023/04/07 01:59:58;;;;;;;;;2.50;1.50;;;;;12.79;55.83;101273.56;5077626;27;45497;-69
2023/04/07 02:02:23;;;;;;;;;1.00;1.00;;;;;12.80;55.75;101272.66;5095894;27;45463;-68
2023/04/07 02:04:55;;;;;;;;;4.67;2.00;;;;;12.78;55.81;101273.53;5091241;27;45396;-66
2023/04/07 02:07:30;;;;;;;;;2.67;1.67;;;;;12.75;55.98;101265.66;5068628;27;47985;-67
2023/04/07 02:10:00;;;;;;;;;3.00;3.00;;;;;12.77;55.39;101277.06;5091516;27;45384;-66
2023/04/07 02:12:28;;;;;;;;;1.00;1.00;;;;;12.78;55.86;101281.44;5086364;27;45420;-67
2023/04/07 02:14:56;;;;;;;;;4.33;1.33;;;;;12.80;55.90;101280.56;5095881;27;45523;-68
2023/04/07 02:17:24;;;;;;;;;1.67;1.00;;;;;12.82;55.94;101278.81;5095425;27;46651;-67
2023/04/07 02:19:52;;;;;;;;;2.00;2.00;;;;;12.78;55.54;101271.78;5095024;27;45433;-68
2023/04/07 02:22:17;;;;;;;;;1.75;1.25;;;;;12.73;55.92;101261.28;5096998;27;45437;-67
2023/04/07 02:24:43;;;;;;;;;2.25;1.00;;;;;12.71;56.31;101268.25;5099331;27;45528;-68
2023/04/07 02:27:09;;;;;;;;;1.75;1.75;;;;;12.73;56.42;101276.16;5098609;27;45505;-67
2023/04/07 02:29:34;;;;;;;;;3.00;1.00;;;;;12.72;55.82;101284.94;5094088;27;45823;-67
2023/04/07 02:32:00;;;;;;;;;2.00;2.00;;;;;12.70;56.32;101282.28;5094986;27;45714;-68
2023/04/07 02:34:26;;;;;;;;;6.00;2.00;;;;;12.71;56.34;101284.03;5095759;27;45524;-68
2023/04/07 02:36:51;;;;;;;;;5.00;2.00;;;;;12.79;56.17;101281.44;5096879;27;45504;-68
2023/04/07 02:39:17;;;;;;;;;2.50;1.00;;;;;12.73;56.13;101271.78;5078655;27;45715;-67
2023/04/07 02:41:42;;;;;;;;;3.00;1.00;;;;;12.85;56.02;101288.44;5095343;27;45831;-68
2023/04/07 02:44:08;;;;;;;;;3.50;1.25;;;;;12.85;55.83;101286.69;5095054;27;45498;-67
2023/04/07 02:46:33;;;;;;;;;5.75;3.75;;;;;12.86;55.75;101280.59;5076883;27;47921;-68
2023/04/07 02:48:59;;;;;;;;;2.25;2.00;;;;;12.84;56.38;101274.44;5096203;27;45726;-69
2023/04/07 02:51:25;;;;;;;;;4.50;2.00;;;;;12.79;56.13;101264.78;5087277;27;45268;-69
2023/04/07 02:53:51;;;;;;;;;4.50;2.00;;;;;12.71;55.88;101251.63;5090539;27;45469;-68
2023/04/07 02:56:17;;;;;;;;;3.00;3.00;;;;;12.73;56.24;101265.66;5088851;27;46038;-68
2023/04/07 02:58:42;;;;;;;;;3.25;2.00;;;;;12.66;56.87;101259.50;5094753;27;45533;-70
2023/04/07 03:01:08;;;;;;;;;3.00;1.33;;;;;12.72;56.07;101264.78;5094838;27;45473;-68
2023/04/07 03:03:34;;;;;;;;;1.50;1.50;;;;;12.64;56.35;101260.38;5077709;27;45872;-68
2023/04/07 03:05:59;;;;;;;;;4.00;2.25;;;;;12.69;56.37;101267.41;5096776;27;45833;-70
2023/04/07 03:08:26;;;;;;;;;4.75;1.75;;;;;12.63;56.34;101261.25;5094891;27;45509;-70
2023/04/07 03:10:51;;;;;;;;;3.00;3.00;;;;;12.67;56.58;101270.88;5086024;27;45388;-66
2023/04/07 03:13:18;;;;;;;;;3.25;3.00;;;;;12.59;56.98;101275.25;5092344;27;45551;-67
2023/04/07 03:15:46;;;;;;;;;1.50;1.50;;;;;12.50;56.86;101270.84;5093844;27;45722;-68
2023/04/07 03:18:12;;;;;;;;;5.00;3.00;;;;;12.45;57.63;101269.97;5076088;27;45498;-68
2023/04/07 03:20:37;;;;;;;;;4.00;2.00;;;;;12.42;57.30;101265.59;5094384;27;45490;-68
2023/04/07 03:23:03;;;;;;;;;4.50;3.00;;;;;12.42;57.19;101269.97;5083330;27;45586;-68
2023/04/07 03:25:28;;;;;;;;;3.00;2.00;;;;;12.44;57.52;101268.22;5069887;28;46707;-67
2023/04/07 03:27:54;;;;;;;;;2.00;2.00;;;;;12.39;57.22;101265.59;5058336;28;45551;-70
2023/04/07 03:30:20;;;;;;;;;2.00;2.00;;;;;12.39;57.56;101275.22;5086610;27;45364;-67
2023/04/07 03:32:46;;;;;;;;;3.00;2.00;;;;;12.37;57.51;101275.22;5076777;27;45497;-69
2023/04/07 03:35:11;;;;;;;;;2.00;1.75;;;;;12.26;57.88;101264.66;5094359;27;47952;-70
2023/04/07 03:37:37;;;;;;;;;4.00;2.75;;;;;12.35;57.45;101281.31;5098268;27;45327;-70
2023/04/07 03:40:02;;;;;;;;;2.50;2.00;;;;;12.34;57.54;101290.06;5098623;27;45524;-66
2023/04/07 03:42:28;;;;;;;;;3.00;2.00;;;;;12.29;57.82;101275.19;5095249;27;45327;-68
2023/04/07 03:44:53;;;;;;;;;2.75;2.00;;;;;12.28;58.13;101280.41;5076279;27;47974;-71
2023/04/07 03:47:19;;;;;;;;;7.50;3.00;;;;;12.20;58.59;101288.28;5099677;27;45415;-68
2023/04/07 03:49:45;;;;;;;;;3.75;3.75;;;;;12.16;58.38;101283.88;5078358;27;45514;-68
2023/04/07 03:52:10;;;;;;;;;3.00;3.00;;;;;12.09;58.27;101277.72;5094573;27;45404;-70
2023/04/07 03:54:36;;;;;;;;;4.25;3.00;;;;;12.09;58.48;101282.09;5092409;27;46376;-67
2023/04/07 03:57:01;;;;;;;;;4.75;2.75;;;;;12.11;58.75;101280.38;5063221;27;45374;-69
2023/04/07 03:59:27;;;;;;;;;4.75;1.00;;;;;12.13;58.66;101289.13;5094695;27;45532;-69
2023/04/07 04:01:53;;;;;;;;;2.00;2.00;;;;;12.05;58.21;101269.81;5094741;27;45422;-70
2023/04/07 04:04:18;;;;;;;;;3.00;3.00;;;;;12.05;58.59;101275.97;5095525;27;46096;-67
2023/04/07 04:06:44;;;;;;;;;3.25;2.00;;;;;12.07;58.56;101279.44;5098210;27;45373;-69
2023/04/07 04:09:09;;;;;;;;;2.50;2.00;;;;;12.05;58.34;101278.59;5095232;27;45671;-68
2023/04/07 04:11:35;;;;;;;;;1.50;1.50;;;;;12.00;58.46;101271.56;5080152;27;45477;-66
2023/04/07 04:14:01;;;;;;;;;1.50;1.50;;;;;12.06;58.27;101285.59;5075278;27;46293;-67
2023/04/07 04:16:26;;;;;;;;;6.00;3.00;;;;;12.06;58.62;101290.84;5079492;27;45703;-68
2023/04/07 04:18:52;;;;;;;;;6.00;4.00;;;;;12.05;58.93;101293.44;5098337;27;45521;-68
2023/04/07 04:21:17;;;;;;;;;3.50;3.25;;;;;11.82;58.49;101257.44;5096058;27;45388;-67
2023/04/07 04:23:43;;;;;;;;;8.00;4.50;;;;;12.02;58.87;101296.06;5093590;27;45456;-69
2023/04/07 04:26:08;;;;;;;;;3.00;3.00;;;;;12.01;58.57;101307.44;5092279;27;45334;-69
2023/04/07 04:28:34;;;;;;;;;1.75;1.75;;;;;11.96;58.77;101298.66;5094745;27;45290;-70
2023/04/07 04:31:00;;;;;;;;;3.75;2.50;;;;;11.96;58.40;101303.91;5098503;27;45311;-70
2023/04/07 04:33:25;;;;;;;;;4.75;2.50;;;;;11.96;58.36;101307.44;5079387;27;47168;-70
2023/04/07 04:35:51;;;;;;;;;5.75;2.50;;;;;11.93;58.75;101307.38;5097698;27;45415;-68
2023/04/07 04:38:16;;;;;;;;;3.00;3.00;;;;;11.96;59.17;101311.78;5076849;27;45402;-69
2023/04/07 04:40:42;;;;;;;;;3.25;2.25;;;;;11.83;58.45;101290.69;5094288;27;45318;-72
2023/04/07 04:43:08;;;;;;;;;3.50;2.25;;;;;11.94;58.36;101321.41;5075742;27;47014;-71
2023/04/07 04:45:34;;;;;;;;;5.75;3.00;;;;;11.93;58.92;101320.50;5075362;27;45506;-70
2023/04/07 04:48:00;;;;;;;;;3.00;3.00;;;;;11.92;58.94;101323.16;5095778;27;45625;-70
2023/04/07 04:50:25;;;;;;;;;3.00;2.00;;;;;11.85;58.84;101320.44;5099225;27;45441;-69
2023/04/07 04:52:51;;;;;;;;;6.50;3.00;;;;;11.86;59.15;101311.72;5078900;27;46482;-67
2023/04/07 04:55:17;;;;;;;;;3.00;3.00;;;;;11.86;59.04;101310.81;5096669;27;46160;-68
2023/04/07 04:57:42;;;;;;;;;2.00;2.00;;;;;11.72;59.52;101312.47;5099898;27;45814;-69
2023/04/07 05:00:08;;;;;;;;;4.00;2.00;;;;;11.56;59.77;101306.28;5097473;27;45488;-71
2023/04/07 05:02:35;;;;;;;;;3.00;2.50;;;;;11.59;59.59;101319.41;5096697;27;47225;-69
2023/04/07 05:05:01;;;;;;;;;4.00;4.00;;;;;11.60;59.81;101313.25;5096318;27;45424;-67
2023/04/07 05:07:26;;;;;;;;;4.75;4.00;;;;;11.56;59.25;101308.88;5096910;27;45416;-69
2023/04/07 05:09:52;;;;;;;;;2.75;2.25;;;;;11.62;59.97;101317.66;5096566;27;45598;-70
2023/04/07 05:12:18;;;;;;;;;3.00;3.00;;;;;11.61;59.50;101315.03;5067673;27;46800;-66
2023/04/07 05:14:43;;;;;;;;;6.00;5.00;;;;;11.56;59.76;101316.75;5096358;27;45576;-70
2023/04/07 05:17:09;;;;;;;;;5.50;3.25;;;;;11.50;59.67;101311.47;5078234;27;45576;-69
2023/04/07 05:19:34;;;;;;;;;7.25;5.00;;;;;11.55;59.95;101318.47;5096942;27;45415;-69
2023/04/07 05:22:00;;;;;;;;;3.75;2.00;;;;;11.45;60.12;101304.41;5081003;27;47524;-70
2023/04/07 05:24:28;;;;;;;;;4.50;4.00;;;;;11.49;59.72;101307.09;5078897;27;45432;-68
2023/04/07 05:26:53;;;;;;;;;4.25;4.25;;;;;11.58;60.03;101322.88;5078440;27;45482;-70
2023/04/07 05:29:19;;;;;;;;;6.75;5.00;;;;;11.55;60.61;101313.22;5100887;27;45299;-69
2023/04/07 05:31:44;;;;;;;;;11.75;4.00;;;;;11.51;60.14;101301.00;5080377;27;46724;-69
2023/04/07 05:34:10;;;;;;;;;11.00;4.00;;;;;11.59;59.43;101314.16;5078103;27;45467;-69
2023/04/07 05:36:35;;;;;;;;;7.50;5.75;;;;;11.60;59.61;101314.19;5077706;27;45397;-68
2023/04/07 05:39:01;;;;;;;;;5.25;4.50;;;;;11.70;59.61;101325.59;5078042;27;45460;-69
2023/04/07 05:41:27;;;;;;;;;4.00;3.75;;;;;11.59;59.34;101293.16;5096547;27;46273;-70
2023/04/07 05:43:52;;;;;;;;;5.25;3.25;;;;;11.77;58.96;101332.66;5077486;27;45366;-69
2023/04/07 05:46:18;;;;;;;;;5.00;4.00;;;;;11.73;59.24;101301.13;5079559;27;45440;-72
2023/04/07 05:48:43;;;;;;;;;6.75;6.00;;;;;11.91;59.21;101335.38;5100899;27;45390;-71
2023/04/07 05:51:09;;;;;;;;;6.75;4.25;;;;;11.92;58.61;101317.91;5081786;27;46862;-69
2023/04/07 05:53:35;;;;;;;;;9.25;5.75;;;;;12.01;58.76;101324.06;5100434;27;45437;-68
2023/04/07 05:56:00;;;;;;;;;9.25;7.25;;;;;12.05;58.09;101323.22;5095952;27;45544;-71
2023/04/07 05:58:26;;;;;;;;;7.50;5.50;;;;;12.18;58.03;101325.91;5078846;27;45471;-70
2023/04/07 06:00:52;;;;;;;;;5.50;4.00;;;;;12.23;57.90;101332.94;5078459;27;45836;-69
2023/04/07 06:03:18;;;;;;;;;5.00;4.00;;;;;12.16;57.69;101323.28;5077776;27;45442;-68
2023/04/07 06:05:46;;;;;;;;;6.25;4.50;;;;;12.34;57.58;101345.22;5098719;27;45424;-68
2023/04/07 06:08:12;;;;;;;;;8.50;7.75;;;;;12.41;57.37;101347.91;5100613;27;45334;-67
2023/04/07 06:10:40;;;;;;;;;10.25;7.50;;;;;12.45;57.56;101335.66;5090178;27;45388;-70
2023/04/07 06:13:05;;;;;;;;;8.50;8.50;;;;;12.55;56.85;101350.56;5094563;27;45625;-68
2023/04/07 06:15:31;;;;;;;;;6.00;4.25;;;;;12.61;56.70;101349.72;5095583;27;45503;-67
2023/04/07 06:17:57;;;;;;;;;5.75;4.25;;;;;12.70;56.46;101348.00;5098171;27;45532;-69
2023/04/07 06:20:23;;;;;;;;;6.25;5.00;;;;;12.77;56.57;101348.91;5096410;27;45385;-70
2023/04/07 06:22:48;;;;;;;;;5.50;5.00;;;;;12.84;56.38;101347.19;5095526;27;45508;-67
2023/04/07 06:25:14;;;;;;;;;8.25;5.25;;;;;12.82;56.51;101349.78;5095716;27;45255;-69
2023/04/07 06:27:40;;;;;;;;;5.75;5.25;;;;;12.87;55.91;101345.41;5095901;27;45623;-68
2023/04/07 06:30:06;;;;;;;;;6.00;5.50;;;;;12.94;55.46;101356.84;5077166;27;46463;-67
2023/04/07 06:32:32;;;;;;;;;5.00;4.00;;;;;13.02;55.83;101347.19;5087796;27;45363;-69
2023/04/07 06:34:57;;;;;;;;;5.50;5.50;;;;;13.14;55.36;101373.53;5091424;27;45757;-70
2023/04/07 06:37:24;;;;;;;;;6.50;4.75;;;;;13.23;55.76;101382.31;5076307;27;45441;-68
2023/04/07 06:39:51;;;;;;;;;7.75;5.25;;;;;13.24;54.80;101368.25;5056406;27;47058;-68
2023/04/07 06:42:16;;;;;;;;;10.00;6.50;;;;;13.35;55.05;101366.56;5083014;27;45579;-68
2023/04/07 06:44:42;;;;;;;;;8.25;5.00;;;;;13.25;54.87;101364.78;5088685;27;46438;-69
2023/04/07 06:47:08;;;;;;;;;8.50;5.50;;;;;13.36;54.40;101378.84;5090720;27;45461;-69
2023/04/07 06:49:34;;;;;;;;;4.75;4.00;;;;;13.39;54.49;101370.09;5074943;27;45535;-69
2023/04/07 06:52:00;;;;;;;;;9.25;5.75;;;;;13.49;54.11;101383.22;5073043;27;45840;-68
2023/04/07 06:54:25;;;;;;;;;10.75;6.00;;;;;13.49;54.10;101377.09;5078258;27;45497;-69
2023/04/07 06:56:51;;;;;;;;;10.00;7.50;;;;;13.59;53.54;101384.09;5060447;27;45472;-69
2023/04/07 06:59:16;;;;;;;;;7.00;6.50;;;;;13.75;53.72;101387.63;5077795;27;46282;-67
2023/04/07 07:01:42;;;;;;;;;11.00;7.25;;;;;13.83;53.52;101400.75;5081196;27;45417;-68
2023/04/07 07:04:08;;;;;;;;;9.75;8.00;;;;;13.73;53.15;101394.63;5063267;27;45507;-70
2023/04/07 07:06:34;;;;;;;;;12.00;9.50;;;;;13.70;52.99;101386.75;5086602;27;45607;-67
2023/04/07 07:09:01;;;;;;;;;10.50;8.25;;;;;13.79;52.46;101382.34;5059282;27;46687;-68
2023/04/07 07:11:27;;;;;;;;;11.00;6.50;;;;;13.97;52.72;101399.00;5081454;27;45356;-71
2023/04/07 07:13:52;;;;;;;;;8.25;8.25;;;;;13.98;52.22;101391.09;5078376;27;45911;-70
2023/04/07 07:16:18;;;;;;;;;9.75;7.50;;;;;14.09;52.04;101395.47;5085868;27;45489;-69
2023/04/07 07:18:43;;;;;;;;;14.75;8.00;;;;;14.07;51.95;101400.75;5074194;27;45755;-70
2023/04/07 07:21:09;;;;;;;;;9.75;7.50;;;;;14.15;52.69;101403.38;5055455;27;45461;-70
2023/04/07 07:23:35;;;;;;;;;10.50;9.75;;;;;14.13;51.49;101384.06;5074200;27;45421;-69
2023/04/07 07:26:00;;;;;;;;;11.75;11.25;;;;;14.24;51.73;101391.91;5073873;27;45497;-69
2023/04/07 07:28:27;;;;;;;;;9.50;9.25;;;;;14.34;51.13;101405.06;5073734;27;46509;-69
2023/04/07 07:30:53;;;;;;;;;12.00;11.25;;;;;14.42;50.53;101407.69;5055459;28;45502;-70
2023/04/07 07:33:25;;;;;;;;;10.00;9.25;;;;;14.45;51.25;101419.97;5058391;27;45559;-70
2023/04/07 07:35:52;;;;;;;;;15.00;10.75;;;;;14.46;50.64;101417.34;5068936;27;45366;-68
2023/04/07 07:38:17;;;;;;;;;12.00;11.25;;;;;14.53;50.50;101420.84;5084647;27;45472;-71
2023/04/07 07:40:43;;;;;;;;;13.50;10.50;;;;;14.60;50.82;101422.59;5079242;27;45510;-70
2023/04/07 07:43:08;;;;;;;;;8.50;7.00;;;;;14.64;50.43;101424.34;5077892;27;45626;-71
2023/04/07 07:45:34;;;;;;;;;11.75;8.25;;;;;14.71;50.34;101426.09;5099044;27;45457;-70
2023/04/07 07:48:03;;;;;;;;;8.25;8.25;;;;;14.73;50.17;101424.28;5077708;27;46107;-67
2023/04/07 07:50:30;;;;;;;;;6.00;6.00;;;;;14.81;49.57;101427.78;5096549;27;45248;-68
2023/04/07 07:52:55;;;;;;;;;9.67;9.00;;;;;14.86;49.48;101414.56;5098776;27;45280;-68
2023/04/07 07:55:21;;;;;;;;;9.00;8.00;;;;;14.80;49.28;101404.03;5098302;27;45332;-70
2023/04/07 07:57:47;;;;;;;;;8.33;8.00;;;;;14.92;49.48;101424.22;5087146;27;45360;-70
2023/04/07 08:00:13;;;;;;;;;11.33;9.00;;;;;15.00;49.38;101422.44;5077918;27;45483;-71
2023/04/07 08:02:38;;;;;;;;;14.67;9.00;;;;;15.02;49.22;101426.81;5056336;28;45478;-71
2023/04/07 08:05:04;;;;;;;;;12.00;8.67;;;;;15.05;49.17;101428.53;5056033;27;45627;-69
2023/04/07 08:07:30;;;;;;;;;8.00;8.00;;;;;15.02;49.02;101420.66;5076967;27;45616;-67
2023/04/07 08:09:55;;;;;;;;;8.00;8.00;;;;;15.10;48.93;101431.16;5055429;28;45509;-69
2023/04/07 08:12:21;;;;;;;;;11.75;7.50;;;;;15.14;48.75;101430.25;5083930;27;45717;-68
2023/04/07 08:14:50;;;;;;;;;7.67;5.00;;;;;15.16;48.29;101431.09;5075608;27;45364;-71
2023/04/07 08:17:16;;;;;;;;;12.67;9.67;;;;;15.19;48.47;101425.84;5096669;27;45377;-70
2023/04/07 08:20:19;;;;;;;;;14.67;12.00;;;;;15.32;48.03;101432.78;5081374;27;45299;-70
2023/04/07 08:22:45;;;;;;;;;16.00;12.25;;;;;15.16;47.86;101408.25;5091413;27;45350;-70
2023/04/07 08:25:13;;;;;;;;;10.33;10.33;;;;;15.24;47.92;101417.00;5092361;27;45568;-71
2023/04/07 08:27:39;;;;;;;;;15.67;10.00;;;;;15.39;47.83;101430.97;5086323;27;46123;-70
2023/04/07 08:30:08;;;;;;;;;13.00;12.00;;;;;15.47;47.53;101437.97;5081117;27;45433;-68
2023/04/07 08:32:42;;;;;;;;;12.00;10.67;;;;;15.50;47.82;101444.97;5081026;27;45477;-69
2023/04/07 08:35:08;;;;;;;;;9.33;7.00;;;;;15.51;47.74;101437.94;5083789;27;45442;-70
2023/04/07 08:37:34;;;;;;;;;15.00;11.33;;;;;15.41;47.60;101418.66;5085275;27;45503;-67
2023/04/07 08:40:02;;;;;;;;;14.67;11.67;;;;;15.56;47.11;101444.91;5078425;27;45540;-67
2023/04/07 08:42:31;;;;;;;;;18.50;13.50;;;;;15.46;47.42;101432.69;5058993;28;45395;-69
2023/04/07 08:44:58;;;;;;;;;17.00;12.67;;;;;15.45;47.57;101423.03;5078091;27;45757;-70
2023/04/07 08:47:27;;;;;;;;;21.00;13.00;;;;;15.56;48.46;101438.78;5076848;27;45500;-69
2023/04/07 08:49:59;;;;;;;;;18.75;13.00;;;;;15.61;47.42;101437.88;5076880;27;45288;-71
2023/04/07 08:52:33;;;;;;;;;11.00;10.33;;;;;15.69;47.37;101443.09;5077442;27;45489;-69
2023/04/07 08:55:03;;;;;;;;;13.00;10.25;;;;;15.75;47.36;101443.06;5058637;27;45482;-69
2023/04/07 08:57:32;;;;;;;;;17.25;12.25;;;;;15.80;47.25;101446.56;5062488;28;45613;-69
2023/04/07 09:00:04;;;;;;;;;10.67;8.67;;;;;15.81;46.48;101444.78;5068283;27;45464;-70
2023/04/07 09:02:35;;;;;;;;;11.00;9.67;;;;;15.86;46.74;101443.84;5060507;27;45642;-68
2023/04/07 09:05:06;;;;;;;;;10.33;9.67;;;;;15.88;46.77;101454.41;5076985;27;45427;-69
2023/04/07 09:07:33;;;;;;;;;16.33;13.00;;;;;15.84;46.47;101442.09;5079924;27;45564;-70
2023/04/07 09:10:00;;;;;;;;;12.75;11.75;;;;;15.93;46.79;101443.81;5081320;27;46003;-68
2023/04/07 09:12:27;;;;;;;;;13.33;12.33;;;;;15.95;46.77;101448.19;5091629;27;45492;-69
2023/04/07 09:14:53;;;;;;;;;12.67;12.00;;;;;16.10;46.49;101455.09;5101574;27;45237;-69
2023/04/07 09:17:19;;;;;;;;;13.33;12.33;;;;;16.21;45.91;101447.06;5082491;27;45742;-71
2023/04/07 09:19:45;;;;;;;;;14.67;13.00;;;;;16.32;45.95;101450.44;5103062;27;45434;-70
2023/04/07 09:22:13;;;;;;;;;16.33;12.33;;;;;16.36;45.50;101454.81;5101713;27;45337;-70
2023/04/07 09:24:39;;;;;;;;;17.33;12.33;;;;;16.42;45.43;101452.13;5096962;27;45418;-69
2023/04/07 09:27:16;;;;;;;;;15.33;8.00;;;;;16.41;45.42;101462.72;5077644;27;47766;-69
2023/04/07 09:29:43;;;;;;;;;12.33;10.67;;;;;16.45;45.66;101462.66;5096671;27;45564;-69
2023/04/07 09:32:10;;;;;;;;;15.67;12.33;;;;;16.40;45.20;101461.84;5095479;27;45479;-69
2023/04/07 09:34:38;;;;;;;;;13.67;12.33;;;;;16.32;45.24;101461.03;5094961;27;45666;-69
2023/04/07 09:37:08;;;;;;;;;13.67;10.33;;;;;16.19;46.14;101462.06;5077110;27;47183;-68
2023/04/07 09:39:51;;;;;;;;;11.33;8.67;;;;;16.11;45.79;101456.81;5096843;27;45522;-68
2023/04/07 09:42:16;;;;;;;;;12.67;10.67;;;;;16.16;45.76;101462.06;5095356;27;46175;-70
2023/04/07 09:44:43;;;;;;;;;13.67;11.67;;;;;16.32;47.36;101463.66;5093855;27;45777;-69
2023/04/07 09:47:08;;;;;;;;;21.00;17.00;;;;;16.36;45.89;101454.81;5096210;27;45510;-69
2023/04/07 09:49:54;;;;;;;;;10.67;9.67;;;;;16.39;46.84;101456.56;5096620;27;45428;-67
2023/04/07 09:52:25;;;;;;;;;10.33;6.67;;;;;16.45;46.51;101460.03;5097970;27;45406;-68
2023/04/07 09:54:52;;;;;;;;;8.67;6.00;;;;;16.44;45.23;101452.97;5100420;27;45559;-69
2023/04/07 09:57:20;;;;;;;;;11.67;9.67;;;;;16.43;43.36;101455.66;5099756;27;46386;-69
2023/04/07 09:59:47;;;;;;;;;6.00;6.00;;;;;16.44;43.01;101452.09;5100099;27;45551;-68
2023/04/07 10:02:13;;;;;;;;;9.67;9.67;;;;;16.57;42.61;101451.06;5100257;27;45449;-68
2023/04/07 10:04:39;;;;;;;;;15.00;11.33;;;;;16.41;42.53;101416.00;5098797;27;45421;-67
2023/04/07 10:07:05;;;;;;;;;11.00;8.00;;;;;16.57;42.82;101459.00;5076968;27;45347;-68
2023/04/07 10:09:31;;;;;;;;;11.67;9.67;;;;;16.68;41.28;101456.22;5097463;27;45338;-69
2023/04/07 10:11:58;;;;;;;;;9.00;9.00;;;;;16.84;41.37;101460.47;5087510;27;45319;-68
2023/04/07 10:14:30;;;;;;;;;8.00;7.00;;;;;16.95;39.94;101452.41;5077166;27;45411;-67
2023/04/07 10:16:58;;;;;;;;;8.00;7.00;;;;;16.83;40.03;101442.00;5094852;27;46032;-68
2023/04/07 10:19:25;;;;;;;;;9.33;7.00;;;;;16.81;40.50;101451.72;5093930;27;45837;-69
2023/04/07 10:21:54;;;;;;;;;8.00;6.00;;;;;16.73;39.95;101444.72;5077010;27;45596;-68
2023/04/07 10:24:46;;;;;;;;;6.33;5.00;;;;;16.67;40.92;101458.00;5077164;27;45299;-68
2023/04/07 10:27:16;;;;;;;;;9.33;7.67;;;;;16.50;40.89;101446.75;5095128;27;46411;-69
2023/04/07 10:29:45;;;;;;;;;12.00;5.33;;;;;16.42;40.85;101452.13;5071670;28;45396;-69
2023/04/07 10:32:11;;;;;;;;;7.00;5.00;;;;;16.25;40.32;101447.03;5096049;27;45351;-68
2023/04/07 10:34:49;;;;;;;;;6.00;4.33;;;;;16.17;40.86;101453.25;5095881;27;45422;-69
2023/04/07 10:37:20;;;;;;;;;6.67;6.00;;;;;16.09;41.62;101451.56;5076896;27;46767;-68
2023/04/07 10:39:46;;;;;;;;;5.00;5.00;;;;;16.16;41.69;101436.53;5095323;27;45832;-68
2023/04/07 10:42:51;;;;;;;;;12.00;8.33;;;;;16.32;41.97;101451.34;5081773;27;45528;-68
2023/04/07 10:45:48;;;;;;;;;5.33;4.00;;;;;16.84;40.54;101451.66;5074354;27;45595;-68
2023/04/07 10:48:16;;;;;;;;;11.67;8.67;;;;;16.87;40.09;101448.97;5055383;28;47689;-66
2023/04/07 10:50:41;;;;;;;;;7.00;6.33;;;;;16.75;40.98;101460.53;5066136;28;45392;-69
2023/04/07 10:53:12;;;;;;;;;8.33;7.00;;;;;16.83;40.98;101455.22;5074093;27;45638;-68
2023/04/07 10:55:41;;;;;;;;;7.33;5.67;;;;;17.00;42.07;101453.22;5056369;27;45694;-68
2023/04/07 10:58:36;;;;;;;;;5.67;5.00;;;;;17.09;40.08;101447.81;5073571;27;46215;-68
2023/04/07 11:01:05;;;;;;;;;8.00;7.00;;;;;17.16;41.12;101448.59;5042286;27;45504;-67
2023/04/07 11:03:36;;;;;;;;;5.33;5.00;;;;;17.17;41.83;101445.06;5055897;28;45446;-67
2023/04/07 11:06:06;;;;;;;;;4.67;4.67;;;;;17.29;40.43;101449.28;5074265;27;45441;-68
2023/04/07 11:08:42;;;;;;;;;5.00;4.00;;;;;17.34;39.90;101440.38;5055816;28;46505;-67
2023/04/07 11:11:12;;;;;;;;;8.67;5.00;;;;;17.68;39.17;101437.22;5056198;28;45374;-67
2023/04/07 11:13:43;;;;;;;;;5.67;5.33;;;;;17.88;38.98;101433.41;5080549;27;45430;-66
2023/04/07 11:16:09;;;;;;;;;9.33;5.00;;;;;18.11;38.33;101441.81;5094912;27;46204;-67
2023/04/07 11:18:38;;;;;;;;;5.33;5.33;;;;;18.44;37.75;101442.97;5094359;27;46351;-68
2023/04/07 11:21:06;;;;;;;;;10.00;5.00;;;;;18.68;36.97;101443.38;5094949;27;45500;-67
2023/04/07 11:23:42;;;;;;;;;6.00;6.00;;;;;18.76;37.28;101433.50;5099209;27;45436;-68